Time,TemperatureF,DewpointF,PressureIn,WindDirection,WindDirectionDegrees,WindSpeedMPH,WindSpeedGustMPH,Humidity,HourlyPrecipIn,Conditions,Clouds,dailyrainin,SoftwareType,DateUTC
2013-01-08 00:20:00,33.6,29.0,30.45,SE,129,0.0,1.0,83,0.00,,,0.00,weatherlink.com 1.10,2013-01-08 05:20:00,
2013-01-08 00:35:00,33.5,29.0,30.46,SE,130,0.0,1.0,84,0.00,,,0.00,weatherlink.com 1.10,2013-01-08 05:35:00,
2013-01-08 00:50:00,33.4,29.0,30.45,SE,128,0.0,0.0,84,0.00,,,0.00,weatherlink.com 1.10,2013-01-08 05:50:00,
2013-01-08 01:05:00,33.4,29.0,30.45,SE,129,0.0,0.0,84,0.00,,,0.00,weatherlink.com 1.10,2013-01-08 06:05:00,
2013-01-08 01:20:00,33.4,29.0,30.46,SE,129,0.0,0.0,84,0.00,,,0.00,weatherlink.com 1.10,2013-01-08 06:20:00,
2013-01-08 01:35:00,33.4,29.0,30.46,SE,129,0.0,0.0,84,0.00,,,0.00,weatherlink.com 1.10,2013-01-08 06:35:00,
2013-01-08 01:50:00,33.2,28.0,30.46,SE,128,0.0,1.0,82,0.00,,,0.00,weatherlink.com 1.10,2013-01-08 06:50:00,
2013-01-08 02:05:00,32.8,28.0,30.46,SE,129,0.0,0.0,83,0.00,,,0.00,weatherlink.com 1.10,2013-01-08 07:05:00,
2013-01-08 02:20:00,32.5,28.0,30.45,SE,129,0.0,0.0,83,0.00,,,0.00,weatherlink.com 1.10,2013-01-08 07:20:00,
2013-01-08 02:38:00,32.1,28.0,30.46,SE,129,0.0,1.0,83,0.00,,,0.00,weatherlink.com 1.10,2013-01-08 07:38:00,
2013-01-08 02:50:00,31.5,27.0,30.46,SE,128,0.0,0.0,83,0.00,,,0.00,weatherlink.com 1.10,2013-01-08 07:50:00,
2013-01-08 03:05:00,31.1,27.0,30.46,SE,129,0.0,0.0,83,0.00,,,0.00,weatherlink.com 1.10,2013-01-08 08:05:00,
2013-01-08 03:20:00,30.7,26.0,30.46,SE,129,0.0,0.0,84,0.00,,,0.00,weatherlink.com 1.10,2013-01-08 08:20:00,
2013-01-08 03:35:00,30.4,26.0,30.45,SE,129,0.0,0.0,84,0.00,,,0.00,weatherlink.com 1.10,2013-01-08 08:35:00,
2013-01-08 03:50:00,30.2,26.0,30.45,SE,129,0.0,0.0,85,0.00,,,0.00,weatherlink.com 1.10,2013-01-08 08:50:00,
2013-01-08 04:05:00,30.0,26.0,30.45,SE,129,0.0,0.0,85,0.00,,,0.00,weatherlink.com 1.10,2013-01-08 09:05:00,
2013-01-08 04:20:00,29.9,26.0,30.45,SE,129,0.0,0.0,86,0.00,,,0.00,weatherlink.com 1.10,2013-01-08 09:20:00,
2013-01-08 04:35:00,30.2,27.0,30.44,SE,129,0.0,0.0,86,0.00,,,0.00,weatherlink.com 1.10,2013-01-08 09:35:00,
2013-01-08 04:50:00,30.6,27.0,30.44,SE,128,0.0,0.0,87,0.00,,,0.00,weatherlink.com 1.10,2013-01-08 09:50:00,
2013-01-08 05:05:00,30.9,28.0,30.44,SE,129,0.0,0.0,87,0.00,,,0.00,weatherlink.com 1.10,2013-01-08 10:05:00,
2013-01-08 05:23:00,31.3,28.0,30.44,SE,129,0.0,0.0,87,0.00,,,0.00,weatherlink.com 1.10,2013-01-08 10:23:00,
2013-01-08 05:35:00,31.9,29.0,30.45,SE,129,0.0,1.0,88,0.00,,,0.00,weatherlink.com 1.10,2013-01-08 10:35:00,
2013-01-08 05:50:00,32.3,29.0,30.45,SE,129,0.0,0.0,87,0.00,,,0.00,weatherlink.com 1.10,2013-01-08 10:50:00,
2013-01-08 06:05:00,32.6,29.0,30.44,SE,129,0.0,1.0,87,0.00,,,0.00,weatherlink.com 1.10,2013-01-08 11:05:00,
2013-01-08 06:20:00,33.0,30.0,30.46,SE,129,0.0,1.0,87,0.00,,,0.00,weatherlink.com 1.10,2013-01-08 11:20:00,
2013-01-08 06:35:00,33.2,30.0,30.46,SE,129,0.0,1.0,87,0.00,,,0.00,weatherlink.com 1.10,2013-01-08 11:35:00,
2013-01-08 06:50:00,33.5,30.0,30.46,SE,129,0.0,0.0,87,0.00,,,0.00,weatherlink.com 1.10,2013-01-08 11:50:00,
2013-01-08 07:05:00,34.0,31.0,30.45,SE,129,0.0,1.0,87,0.00,,,0.00,weatherlink.com 1.10,2013-01-08 12:05:00,
2013-01-08 07:20:00,34.3,31.0,30.45,SE,129,0.0,1.0,87,0.00,,,0.00,weatherlink.com 1.10,2013-01-08 12:20:00,
2013-01-08 07:35:00,34.7,31.0,30.45,SE,129,0.0,1.0,87,0.00,,,0.00,weatherlink.com 1.10,2013-01-08 12:35:00,
2013-01-08 07:50:00,35.0,32.0,30.46,SE,129,0.0,0.0,87,0.00,,,0.00,weatherlink.com 1.10,2013-01-08 12:50:00,
2013-01-08 08:06:00,35.5,32.0,30.46,SE,129,0.0,0.0,87,0.00,,,0.00,weatherlink.com 1.10,2013-01-08 13:06:00,
2013-01-08 08:21:00,35.9,32.0,30.48,SE,129,0.0,1.0,86,0.00,,,0.00,weatherlink.com 1.10,2013-01-08 13:21:00,
2013-01-08 08:36:00,36.1,32.0,30.48,SE,129,0.0,0.0,85,0.00,,,0.00,weatherlink.com 1.10,2013-01-08 13:36:00,
2013-01-08 08:51:00,36.5,32.0,30.50,SE,129,0.0,0.0,85,0.00,,,0.00,weatherlink.com 1.10,2013-01-08 13:51:00,
2013-01-08 09:06:00,37.4,34.0,30.50,SE,129,0.0,1.0,86,0.00,,,0.00,weatherlink.com 1.10,2013-01-08 14:06:00,
2013-01-08 09:21:00,38.0,33.0,30.50,SE,129,0.0,1.0,83,0.00,,,0.00,weatherlink.com 1.10,2013-01-08 14:21:00,
2013-01-08 09:36:00,38.5,33.0,30.50,SE,129,0.0,0.0,81,0.00,,,0.00,weatherlink.com 1.10,2013-01-08 14:36:00,
2013-01-08 09:51:00,39.2,33.0,30.50,SE,129,0.0,1.0,78,0.00,,,0.00,weatherlink.com 1.10,2013-01-08 14:51:00,
2013-01-08 10:06:00,39.8,34.0,30.50,SE,128,0.0,0.0,80,0.00,,,0.00,weatherlink.com 1.10,2013-01-08 15:06:00,
2013-01-08 10:21:00,40.1,34.0,30.50,SE,130,0.0,0.0,80,0.00,,,0.00,weatherlink.com 1.10,2013-01-08 15:21:00,
2013-01-08 10:36:00,40.6,35.0,30.50,SE,129,0.0,1.0,79,0.00,,,0.00,weatherlink.com 1.10,2013-01-08 15:36:00,
2013-01-08 10:51:00,41.2,35.0,30.50,SE,129,0.0,1.0,79,0.00,,,0.00,weatherlink.com 1.10,2013-01-08 15:51:00,
2013-01-08 11:06:00,41.6,35.0,30.50,SE,129,0.0,0.0,78,0.00,,,0.00,weatherlink.com 1.10,2013-01-08 16:06:00,
2013-01-08 11:21:00,42.4,35.0,30.49,SE,129,0.0,1.0,76,0.00,,,0.00,weatherlink.com 1.10,2013-01-08 16:21:00,
2013-01-08 11:36:00,42.9,36.0,30.49,SE,129,0.0,1.0,75,0.00,,,0.00,weatherlink.com 1.10,2013-01-08 16:36:00,
2013-01-08 11:51:00,43.3,36.0,30.47,SE,130,0.0,0.0,75,0.00,,,0.00,weatherlink.com 1.10,2013-01-08 16:51:00,
2013-01-08 12:06:00,43.9,36.0,30.47,SE,129,0.0,1.0,73,0.00,,,0.00,weatherlink.com 1.10,2013-01-08 17:06:00,
2013-01-08 12:36:00,45.5,36.0,30.45,NNW,329,0.0,3.0,69,0.00,,,0.00,weatherlink.com 1.10,2013-01-08 17:36:00,
2013-01-08 12:51:00,46.1,36.0,30.44,NNE,28,1.0,2.0,69,0.00,,,0.00,weatherlink.com 1.10,2013-01-08 17:51:00,
2013-01-08 13:06:00,47.2,36.0,30.44,NNE,22,0.0,2.0,66,0.00,,,0.00,weatherlink.com 1.10,2013-01-08 18:06:00,
2013-01-08 13:21:00,48.3,37.0,30.44,North,355,1.0,3.0,65,0.00,,,0.00,weatherlink.com 1.10,2013-01-08 18:21:00,
2013-01-08 13:36:00,49.3,36.0,30.43,North,355,1.0,2.0,61,0.00,,,0.00,weatherlink.com 1.10,2013-01-08 18:36:00,
2013-01-08 13:51:00,50.2,37.0,30.43,North,360,0.0,3.0,61,0.00,,,0.00,weatherlink.com 1.10,2013-01-08 18:51:00,
2013-01-08 14:07:00,51.2,37.0,30.41,ESE,123,0.0,4.0,58,0.00,,,0.00,weatherlink.com 1.10,2013-01-08 19:07:00,
2013-01-08 14:22:00,51.5,37.0,30.41,ESE,123,0.0,2.0,59,0.00,,,0.00,weatherlink.com 1.10,2013-01-08 19:22:00,
2013-01-08 14:37:00,52.2,37.0,30.41,East,100,0.0,2.0,57,0.00,,,0.00,weatherlink.com 1.10,2013-01-08 19:37:00,
2013-01-08 14:52:00,52.4,36.0,30.41,East,100,0.0,1.0,54,0.00,,,0.00,weatherlink.com 1.10,2013-01-08 19:52:00,
2013-01-08 15:07:00,52.7,38.0,30.41,East,100,1.0,1.0,57,0.00,,,0.00,weatherlink.com 1.10,2013-01-08 20:07:00,
2013-01-08 15:22:00,53.2,36.0,30.41,East,100,0.0,3.0,53,0.00,,,0.00,weatherlink.com 1.10,2013-01-08 20:22:00,
2013-01-08 15:37:00,53.5,38.0,30.40,NNE,22,0.0,1.0,56,0.00,,,0.00,weatherlink.com 1.10,2013-01-08 20:37:00,
2013-01-08 15:52:00,53.6,39.0,30.41,NNE,22,0.0,1.0,58,0.00,,,0.00,weatherlink.com 1.10,2013-01-08 20:52:00,
2013-01-08 16:07:00,53.2,38.0,30.41,NNE,22,0.0,0.0,56,0.00,,,0.00,weatherlink.com 1.10,2013-01-08 21:07:00,
2013-01-08 16:22:00,52.7,38.0,30.42,NNE,24,0.0,1.0,57,0.00,,,0.00,weatherlink.com 1.10,2013-01-08 21:22:00,
2013-01-08 16:37:00,52.4,38.0,30.43,North,11,0.0,0.0,58,0.00,,,0.00,weatherlink.com 1.10,2013-01-08 21:37:00,
2013-01-08 16:52:00,52.1,38.0,30.43,North,11,0.0,0.0,60,0.00,,,0.00,weatherlink.com 1.10,2013-01-08 21:52:00,
2013-01-08 17:07:00,51.3,38.0,30.43,North,11,0.0,0.0,61,0.00,,,0.00,weatherlink.com 1.10,2013-01-08 22:07:00,
2013-01-08 17:22:00,50.6,38.0,30.43,North,11,0.0,0.0,62,0.00,,,0.00,weatherlink.com 1.10,2013-01-08 22:22:00,
2013-01-08 17:37:00,49.9,38.0,30.43,North,11,0.0,0.0,63,0.00,,,0.00,weatherlink.com 1.10,2013-01-08 22:37:00,
2013-01-08 17:52:00,48.9,38.0,30.43,North,11,0.0,0.0,65,0.00,,,0.00,weatherlink.com 1.10,2013-01-08 22:52:00,
2013-01-08 18:07:00,48.2,38.0,30.42,North,11,0.0,0.0,67,0.00,,,0.00,weatherlink.com 1.10,2013-01-08 23:07:00,
2013-01-08 18:22:00,47.5,38.0,30.43,North,11,0.0,0.0,69,0.00,,,0.00,weatherlink.com 1.10,2013-01-08 23:22:00,
2013-01-08 18:37:00,46.8,37.0,30.43,North,11,0.0,0.0,69,0.00,,,0.00,weatherlink.com 1.10,2013-01-08 23:37:00,
2013-01-08 18:52:00,46.1,37.0,30.43,North,11,0.0,0.0,71,0.00,,,0.00,weatherlink.com 1.10,2013-01-08 23:52:00,
2013-01-08 19:07:00,45.5,37.0,30.43,North,11,0.0,0.0,73,0.00,,,0.00,weatherlink.com 1.10,2013-01-09 00:07:00,
2013-01-08 19:22:00,44.9,37.0,30.43,North,11,0.0,0.0,74,0.00,,,0.00,weatherlink.com 1.10,2013-01-09 00:22:00,
2013-01-08 19:37:00,44.4,37.0,30.44,North,11,0.0,0.0,74,0.00,,,0.00,weatherlink.com 1.10,2013-01-09 00:37:00,
2013-01-08 19:52:00,43.9,36.0,30.43,North,11,0.0,0.0,75,0.00,,,0.00,weatherlink.com 1.10,2013-01-09 00:52:00,
2013-01-08 20:08:00,43.4,36.0,30.44,North,11,0.0,0.0,76,0.00,,,0.00,weatherlink.com 1.10,2013-01-09 01:08:00,
2013-01-08 20:22:00,43.4,37.0,30.43,North,11,0.0,0.0,78,0.00,,,0.00,weatherlink.com 1.10,2013-01-09 01:22:00,
2013-01-08 20:52:00,43.6,37.0,30.43,North,11,0.0,0.0,77,0.00,,,0.00,weatherlink.com 1.10,2013-01-09 01:52:00,
2013-01-08 21:07:00,43.3,37.0,30.44,North,11,0.0,0.0,77,0.00,,,0.00,weatherlink.com 1.10,2013-01-09 02:07:00,
2013-01-08 21:22:00,42.9,36.0,30.44,North,11,0.0,0.0,78,0.00,,,0.00,weatherlink.com 1.10,2013-01-09 02:22:00,
2013-01-08 21:37:00,42.6,37.0,30.44,NE,37,0.0,2.0,79,0.00,,,0.00,weatherlink.com 1.10,2013-01-09 02:37:00,
2013-01-08 21:52:00,42.4,36.0,30.44,NE,37,0.0,1.0,79,0.00,,,0.00,weatherlink.com 1.10,2013-01-09 02:52:00,
2013-01-08 22:22:00,41.8,36.0,30.43,NE,37,0.0,0.0,80,0.00,,,0.00,weatherlink.com 1.10,2013-01-09 03:22:00,
2013-01-08 22:37:00,41.5,36.0,30.44,NE,37,0.0,0.0,80,0.00,,,0.00,weatherlink.com 1.10,2013-01-09 03:37:00,
2013-01-08 22:52:00,41.4,36.0,30.44,NE,37,0.0,1.0,82,0.00,,,0.00,weatherlink.com 1.10,2013-01-09 03:52:00,
2013-01-08 23:07:00,41.6,37.0,30.43,NE,37,0.0,1.0,82,0.00,,,0.00,weatherlink.com 1.10,2013-01-09 04:07:00,
2013-01-08 23:22:00,41.8,37.0,30.43,NE,37,0.0,1.0,82,0.00,,,0.00,weatherlink.com 1.10,2013-01-09 04:22:00,
2013-01-08 23:37:00,41.9,37.0,30.43,NE,38,0.0,0.0,83,0.00,,,0.00,weatherlink.com 1.10,2013-01-09 04:37:00,
2013-01-08 23:52:00,42.0,37.0,30.43,NE,37,0.0,0.0,82,0.00,,,0.00,weatherlink.com 1.10,2013-01-09 04:52:00,